Time;durP1;ratioP1;P1;durP2;ratioP2;P2;SDS_P1;SDS_P2;PMS_P1;PMS_P2;Temp;Humidity;BMP_temperature;BMP_pressure;BME280_temperature;BME280_humidity;BME280_pressure;Samples;Min_cycle;Max_cycle;Signal;HPM_P1;HPM_P2
2023/05/21 00:01:44;;;;;;;39.50;26.85;;;;;;;-146.82;100.00;71671.09;5053774;28;20017;-76
2023/05/21 00:05:10;;;;;;;40.20;25.60;;;;;;;-146.82;100.00;71671.09;5053997;28;20025;-76
2023/05/21 00:08:42;;;;;;;37.13;23.42;;;;;;;-146.82;100.00;71671.09;5053238;28;20028;-78
2023/05/21 00:12:07;;;;;;;34.38;23.70;;;;;;;-146.82;100.00;71671.09;5052611;28;20417;-77
2023/05/21 00:15:32;;;;;;;39.10;24.25;;;;;;;-146.82;100.00;71671.09;5052971;28;20098;-76
2023/05/21 00:18:59;;;;;;;37.38;23.52;;;;;;;-146.82;100.00;71671.09;5052210;28;20037;-76
2023/05/21 00:22:23;;;;;;;33.95;22.05;;;;;;;-146.82;100.00;71671.09;5052596;28;20033;-76
2023/05/21 00:25:49;;;;;;;36.55;22.95;;;;;;;-146.82;100.00;71671.09;5057289;28;20044;-76
2023/05/21 00:29:15;;;;;;;35.22;22.60;;;;;;;-146.82;100.00;71671.09;5056450;28;20043;-77
2023/05/21 00:32:40;;;;;;;32.45;21.17;;;;;;;-146.82;100.00;71671.09;5055096;28;20033;-77
2023/05/21 00:36:06;;;;;;;30.83;19.88;;;;;;;-146.82;100.00;71671.09;5056423;28;20021;-78
2023/05/21 00:39:30;;;;;;;33.00;21.95;;;;;;;-146.82;100.00;71671.09;5056129;28;20035;-76
2023/05/21 00:42:56;;;;;;;27.85;19.63;;;;;;;-146.82;100.00;71671.09;5055847;28;20032;-75
2023/05/21 00:46:22;;;;;;;28.33;19.52;;;;;;;-146.82;100.00;71671.09;5057071;28;20024;-76
2023/05/21 00:49:48;;;;;;;31.02;20.80;;;;;;;-146.82;100.00;71671.09;5038620;28;20415;-77
2023/05/21 00:53:14;;;;;;;33.72;22.83;;;;;;;-146.82;100.00;71671.09;5055982;28;20071;-76
2023/05/21 00:56:43;;;;;;;32.58;21.10;;;;;;;-146.82;100.00;71671.09;5054458;28;20029;-78
2023/05/21 01:00:10;;;;;;;31.23;22.00;;;;;;;-146.82;100.00;71671.09;5055739;28;20037;-76
2023/05/21 01:03:37;;;;;;;32.97;22.45;;;;;;;-146.82;100.00;71671.09;5054344;28;20029;-76
2023/05/21 01:07:05;;;;;;;32.42;21.83;;;;;;;-146.82;100.00;71671.09;5055604;28;20476;-76
2023/05/21 01:10:31;;;;;;;32.60;22.23;;;;;;;-146.82;100.00;71671.09;5056587;28;20031;-77
2023/05/21 01:13:58;;;;;;;35.22;21.42;;;;;;;-146.82;100.00;71671.09;5056821;28;20017;-75
2023/05/21 01:17:25;;;;;;;32.55;22.73;;;;;;;-146.82;100.00;71671.09;5047080;28;20025;-76
2023/05/21 01:20:51;;;;;;;33.22;22.08;;;;;;;-146.82;100.00;71671.09;5056302;28;20067;-77
2023/05/21 01:24:19;;;;;;;32.63;21.90;;;;;;;-146.82;100.00;71671.09;5046889;28;20108;-75
2023/05/21 01:27:44;;;;;;;30.77;22.23;;;;;;;-146.82;100.00;71671.09;5056213;28;20017;-75
2023/05/21 01:31:18;;;;;;;30.75;22.73;;;;;;;-146.82;100.00;71671.09;5056248;28;20075;-76
2023/05/21 01:35:13;;;;;;;34.17;21.48;;;;;;;-146.82;100.00;71671.09;5054336;28;20020;-77
2023/05/21 01:39:02;;;;;;;34.97;22.33;;;;;;;-146.82;100.00;71671.09;5055977;28;20458;-76
2023/05/21 01:42:29;;;;;;;31.17;21.50;;;;;;;-146.82;100.00;71671.09;5055579;28;20033;-75
2023/05/21 01:45:57;;;;;;;30.50;20.60;;;;;;;-146.82;100.00;71671.09;5054827;28;20021;-75
2023/05/21 01:49:24;;;;;;;28.00;19.60;;;;;;;-146.82;100.00;71671.09;5045955;28;20530;-76
2023/05/21 01:52:51;;;;;;;28.25;19.88;;;;;;;-146.82;100.00;71671.09;5055473;28;20039;-75
2023/05/21 01:56:17;;;;;;;30.10;20.55;;;;;;;-146.82;100.00;71671.09;5046240;28;20036;-75
2023/05/21 01:59:43;;;;;;;29.85;21.65;;;;;;;-146.82;100.00;71671.09;5055014;28;20045;-76
2023/05/21 02:03:08;;;;;;;29.17;21.08;;;;;;;-146.82;100.00;71671.09;5053733;28;20470;-74
2023/05/21 02:06:34;;;;;;;32.53;21.67;;;;;;;-146.82;100.00;71671.09;5055302;28;20457;-75
2023/05/21 02:10:02;;;;;;;37.63;21.17;;;;;;;-146.82;100.00;71671.09;5055194;28;20029;-76
2023/05/21 02:13:28;;;;;;;31.05;21.73;;;;;;;-146.82;100.00;71671.09;5054353;28;20040;-75
2023/05/21 02:16:51;;;;;;;30.52;20.13;;;;;;;-146.82;100.00;71671.09;5055536;28;20104;-76
2023/05/21 02:20:17;;;;;;;27.40;19.42;;;;;;;-146.82;100.00;71671.09;5036118;28;20029;-76
2023/05/21 02:23:42;;;;;;;33.00;21.98;;;;;;;-146.82;100.00;71671.09;5053739;28;20054;-76
2023/05/21 02:27:06;;;;;;;29.00;19.48;;;;;;;-146.82;100.00;71671.09;5053672;28;20090;-75
2023/05/21 02:30:30;;;;;;;30.25;20.33;;;;;;;-146.82;100.00;71671.09;5052346;28;20031;-74
2023/05/21 02:33:55;;;;;;;29.23;20.15;;;;;;;-146.82;100.00;71671.09;5052068;28;20094;-75
2023/05/21 02:37:19;;;;;;;29.48;19.25;;;;;;;-146.82;100.00;71671.09;5051067;28;20032;-76
2023/05/21 02:40:43;;;;;;;27.17;19.75;;;;;;;-146.82;100.00;71671.09;5052896;28;20362;-76
2023/05/21 02:44:06;;;;;;;27.45;19.00;;;;;;;-146.82;100.00;71671.09;5053300;28;20086;-75
2023/05/21 02:47:30;;;;;;;30.30;19.95;;;;;;;-146.82;100.00;71671.09;5053441;28;20032;-75
2023/05/21 02:50:56;;;;;;;26.70;19.00;;;;;;;-146.82;100.00;71671.09;5042856;28;20051;-76
2023/05/21 02:54:19;;;;;;;26.33;18.92;;;;;;;-146.82;100.00;71671.09;5036261;28;20036;-76
2023/05/21 02:57:43;;;;;;;34.00;20.70;;;;;;;-146.82;100.00;71671.09;5053964;28;20076;-76
2023/05/21 03:01:07;;;;;;;26.60;19.33;;;;;;;-146.82;100.00;71671.09;5054139;28;20032;-76
2023/05/21 03:04:32;;;;;;;26.75;19.08;;;;;;;-146.82;100.00;71671.09;5053814;28;20355;-74
2023/05/21 03:07:56;;;;;;;25.70;19.35;;;;;;;-146.82;100.00;71671.09;5052550;28;20481;-74
2023/05/21 03:11:21;;;;;;;26.38;18.77;;;;;;;-146.82;100.00;71671.09;5053752;28;20029;-75
2023/05/21 03:14:45;;;;;;;27.52;17.55;;;;;;;-146.82;100.00;71671.09;5053883;28;20100;-74
2023/05/21 03:18:10;;;;;;;27.65;18.95;;;;;;;-146.82;100.00;71671.09;5053653;28;20035;-76
2023/05/21 03:21:35;;;;;;;26.60;18.38;;;;;;;-146.82;100.00;71671.09;5052365;28;20025;-75
2023/05/21 03:25:00;;;;;;;25.13;18.67;;;;;;;-146.82;100.00;71671.09;5053791;28;20096;-75
2023/05/21 03:28:24;;;;;;;26.00;19.00;;;;;;;-146.82;100.00;71671.09;5053436;28;20539;-75
2023/05/21 03:31:48;;;;;;;25.65;18.73;;;;;;;-146.82;100.00;71671.09;5053573;28;20028;-76
2023/05/21 03:35:12;;;;;;;25.38;18.00;;;;;;;-146.82;100.00;71671.09;5052105;28;20104;-76
2023/05/21 03:38:36;;;;;;;27.80;17.48;;;;;;;-146.82;100.00;71671.09;5052235;28;20102;-75
2023/05/21 03:42:00;;;;;;;27.35;17.50;;;;;;;-146.82;100.00;71671.09;5053684;28;20091;-75
2023/05/21 03:45:24;;;;;;;25.02;17.40;;;;;;;-146.82;100.00;71671.09;5035311;28;20040;-74
2023/05/21 03:48:48;;;;;;;24.42;16.60;;;;;;;-146.82;100.00;71671.09;5052025;28;20025;-76
2023/05/21 03:52:12;;;;;;;24.52;17.15;;;;;;;-146.82;100.00;71671.09;5053104;28;20029;-75
2023/05/21 03:55:36;;;;;;;24.00;17.02;;;;;;;-146.82;100.00;71671.09;5053142;28;20031;-75
2023/05/21 03:59:01;;;;;;;21.33;16.77;;;;;;;-146.82;100.00;71671.09;5055666;28;20053;-77
2023/05/21 04:02:26;;;;;;;21.98;15.68;;;;;;;-146.82;100.00;71671.09;5062170;28;20028;-75
2023/05/21 04:05:57;;;;;;;22.88;16.75;;;;;;;-146.82;100.00;71671.09;5060070;28;20033;-75
2023/05/21 04:09:22;;;;;;;21.20;14.75;;;;;;;-146.82;100.00;71671.09;5053927;28;20052;-77
2023/05/21 04:12:51;;;;;;;20.00;15.57;;;;;;;-146.82;100.00;71671.09;5052409;28;20430;-77
2023/05/21 04:16:17;;;;;;;17.92;14.93;;;;;;;-146.82;100.00;71671.09;5053574;28;20078;-76
2023/05/21 04:19:52;;;;;;;21.02;15.35;;;;;;;-146.82;100.00;71671.09;5043906;28;20040;-76
2023/05/21 04:23:17;;;;;;;21.77;15.13;;;;;;;-146.82;100.00;71671.09;5052028;28;20028;-78
2023/05/21 04:26:43;;;;;;;25.77;14.73;;;;;;;-146.82;100.00;71671.09;5053476;28;20036;-78
2023/05/21 04:30:08;;;;;;;21.27;14.05;;;;;;;-146.82;100.00;71671.09;5053398;28;20040;-78
2023/05/21 04:33:34;;;;;;;21.67;14.20;;;;;;;-146.82;100.00;71671.09;5053375;28;20193;-77
2023/05/21 04:37:03;;;;;;;21.40;13.65;;;;;;;-146.82;100.00;71671.09;5043415;28;20025;-78
2023/05/21 04:40:29;;;;;;;20.98;14.73;;;;;;;-146.82;100.00;71671.09;5052591;28;20051;-77
2023/05/21 04:43:55;;;;;;;19.23;13.65;;;;;;;-146.82;100.00;71671.09;5043135;28;20450;-77
2023/05/21 04:47:20;;;;;;;19.35;12.38;;;;;;;-146.82;100.00;71671.09;5052197;28;20186;-77
2023/05/21 04:50:47;;;;;;;18.20;12.63;;;;;;;-146.82;100.00;71671.09;5053227;28;20033;-77
2023/05/21 04:54:12;;;;;;;19.30;12.80;;;;;;;-146.82;100.00;71671.09;5052911;28;20036;-77
2023/05/21 04:57:37;;;;;;;16.58;12.70;;;;;;;-146.82;100.00;71671.09;5042572;28;20049;-81
2023/05/21 05:01:03;;;;;;;16.17;13.02;;;;;;;-146.82;100.00;71671.09;5052668;28;20066;-77
2023/05/21 05:04:28;;;;;;;16.50;12.77;;;;;;;-146.82;100.00;71671.09;5052586;28;20064;-76
2023/05/21 05:07:53;;;;;;;17.52;12.30;;;;;;;-146.82;100.00;71671.09;5038754;28;20040;-77
2023/05/21 05:11:20;;;;;;;17.65;13.02;;;;;;;-146.82;100.00;71671.09;5051613;28;20079;-78
2023/05/21 05:14:43;;;;;;;14.52;12.65;;;;;;;-146.82;100.00;71671.09;5042863;28;20033;-79
2023/05/21 05:18:07;;;;;;;19.27;11.95;;;;;;;-146.82;100.00;71671.09;5055601;28;20478;-78
2023/05/21 05:21:33;;;;;;;17.35;11.98;;;;;;;-146.82;100.00;71671.09;5056200;28;20059;-77
2023/05/21 05:24:59;;;;;;;18.38;11.30;;;;;;;-146.82;100.00;71671.09;5055810;28;20504;-80
2023/05/21 05:28:24;;;;;;;16.20;11.30;;;;;;;-146.82;100.00;71671.09;5038099;28;20041;-79
2023/05/21 05:31:50;;;;;;;14.73;11.25;;;;;;;-146.82;100.00;71671.09;5054698;28;20052;-79
2023/05/21 05:35:17;;;;;;;15.80;10.80;;;;;;;-146.82;100.00;71671.09;5054546;28;20531;-78
2023/05/21 05:38:43;;;;;;;14.32;11.57;;;;;;;-146.82;100.00;71671.09;5055674;28;20032;-79
2023/05/21 05:42:08;;;;;;;13.32;10.70;;;;;;;-146.82;100.00;71671.09;5055513;28;20021;-79
2023/05/21 05:45:35;;;;;;;16.42;11.20;;;;;;;-146.82;100.00;71671.09;5055678;28;20113;-79
2023/05/21 05:48:59;;;;;;;13.88;10.43;;;;;;;-146.82;100.00;71671.09;5055456;28;20459;-77
2023/05/21 05:52:25;;;;;;;14.23;9.63;;;;;;;-146.82;100.00;71671.09;5055511;28;20539;-78
2023/05/21 05:55:51;;;;;;;13.60;10.43;;;;;;;-146.82;100.00;71671.09;5056064;28;20073;-78
2023/05/21 05:59:17;;;;;;;11.05;9.43;;;;;;;-146.82;100.00;71671.09;5055554;28;20060;-80
2023/05/21 06:02:43;;;;;;;12.50;9.32;;;;;;;-146.82;100.00;71671.09;5055369;28;20039;-77
2023/05/21 06:06:10;;;;;;;10.55;9.23;;;;;;;-146.82;100.00;71671.09;5055252;28;20025;-77
2023/05/21 06:09:37;;;;;;;12.00;9.10;;;;;;;-146.82;100.00;71671.09;5054517;28;20032;-76
2023/05/21 06:13:04;;;;;;;14.25;8.25;;;;;;;-146.82;100.00;71671.09;5045388;28;20033;-80
2023/05/21 06:16:32;;;;;;;14.27;9.18;;;;;;;-146.82;100.00;71671.09;5055193;28;20024;-78
2023/05/21 06:19:58;;;;;;;12.95;8.98;;;;;;;-146.82;100.00;71671.09;5054415;28;20473;-79
2023/05/21 06:23:22;;;;;;;10.38;7.97;;;;;;;-146.82;100.00;71671.09;5054407;28;20029;-79
2023/05/21 06:26:55;;;;;;;11.15;7.40;;;;;;;-146.82;100.00;71671.09;5055124;28;20040;-79
2023/05/21 06:30:21;;;;;;;9.35;7.22;;;;;;;-146.82;100.00;71671.09;5053892;28;20037;-80
2023/05/21 06:33:48;;;;;;;9.20;6.60;;;;;;;-146.82;100.00;71671.09;5036941;28;20024;-81
2023/05/21 06:37:19;;;;;;;9.60;6.93;;;;;;;-146.82;100.00;71671.09;5054416;28;20035;-82
2023/05/21 06:41:02;;;;;;;9.77;7.00;;;;;;;-146.82;100.00;71671.09;5054879;28;20096;-81
2023/05/21 06:44:29;;;;;;;7.72;6.40;;;;;;;-146.82;100.00;71671.09;5054796;28;20055;-82
2023/05/21 06:47:54;;;;;;;8.52;6.53;;;;;;;-146.82;100.00;71671.09;5054841;28;20028;-84
2023/05/21 06:51:18;;;;;;;9.18;6.47;;;;;;;-146.82;100.00;71671.09;5050977;28;20355;-83
2023/05/21 06:54:42;;;;;;;9.50;6.93;;;;;;;-146.82;100.00;71671.09;5042522;28;20463;-85
2023/05/21 06:58:07;;;;;;;7.97;6.40;;;;;;;-146.82;100.00;71671.09;5040094;28;20094;-81
2023/05/21 07:01:33;;;;;;;10.25;6.35;;;;;;;-146.82;100.00;71671.09;5016015;28;20028;-80
2023/05/21 07:04:58;;;;;;;7.18;6.07;;;;;;;-146.82;100.00;71671.09;5046435;28;20067;-78
2023/05/21 07:08:23;;;;;;;10.60;5.90;;;;;;;-146.82;100.00;71671.09;5037594;28;20083;-82
2023/05/21 07:11:48;;;;;;;6.53;5.93;;;;;;;-146.82;100.00;71671.09;5041121;28;20025;-80
2023/05/21 07:15:12;;;;;;;7.25;6.32;;;;;;;-146.82;100.00;71671.09;5053041;28;20021;-83
2023/05/21 07:18:40;;;;;;;8.13;6.18;;;;;;;-146.82;100.00;71671.09;5053506;28;20386;-79
2023/05/21 07:22:04;;;;;;;7.05;5.97;;;;;;;-146.82;100.00;71671.09;5052809;28;20056;-81
2023/05/21 07:25:30;;;;;;;7.93;6.25;;;;;;;-146.82;100.00;71671.09;5053579;28;20378;-82
2023/05/21 07:28:56;;;;;;;10.95;6.80;;;;;;;-146.82;100.00;71671.09;5053623;28;20107;-83
2023/05/21 07:32:23;;;;;;;9.07;5.82;;;;;;;-146.82;100.00;71671.09;5035062;28;20082;-81
2023/05/21 07:35:49;;;;;;;9.10;5.97;;;;;;;-146.82;100.00;71671.09;5053335;28;20454;-83
2023/05/21 07:39:15;;;;;;;8.82;6.25;;;;;;;-146.82;100.00;71671.09;5053458;28;20163;-81
2023/05/21 07:42:41;;;;;;;6.75;5.85;;;;;;;-146.82;100.00;71671.09;5053156;28;20071;-81
2023/05/21 07:46:15;;;;;;;9.13;6.10;;;;;;;-146.82;100.00;71671.09;5051905;28;20028;-81
2023/05/21 07:49:41;;;;;;;9.55;7.22;;;;;;;-146.82;100.00;71671.09;5051858;28;20021;-80
2023/05/21 07:53:06;;;;;;;9.73;6.25;;;;;;;-146.82;100.00;71671.09;5053448;28;20048;-82
2023/05/21 07:56:31;;;;;;;7.95;5.82;;;;;;;-146.82;100.00;71671.09;5033160;28;20022;-84
2023/05/21 07:59:56;;;;;;;6.78;6.00;;;;;;;-146.82;100.00;71671.09;5033001;28;20045;-81
2023/05/21 08:03:23;;;;;;;8.45;5.97;;;;;;;-146.82;100.00;71671.09;5033492;28;20045;-85
2023/05/21 08:06:48;;;;;;;6.20;5.47;;;;;;;-146.82;100.00;71671.09;5031636;28;20033;-83
2023/05/21 08:09:13;;;;;;;9.25;6.05;;;;;;;-146.82;100.00;71671.09;5034569;28;20033;-83
2023/05/21 08:11:40;;;;;;;6.50;5.93;;;;;;;-146.82;100.00;71671.09;5036381;28;20033;-83
2023/05/21 08:14:08;;;;;;;11.45;5.63;;;;;;;-146.82;100.00;71671.09;5018142;28;20060;-85
2023/05/21 08:16:43;;;;;;;7.97;5.72;;;;;;;-146.82;100.00;71671.09;5034625;28;20036;-83
2023/05/21 08:19:15;;;;;;;7.28;5.53;;;;;;;-146.82;100.00;71671.09;5045150;28;20059;-85
2023/05/21 08:21:41;;;;;;;8.70;5.45;;;;;;;-146.82;100.00;71671.09;5052961;28;20086;-85
2023/05/21 08:24:51;;;;;;;7.60;5.78;;;;;;;-146.82;100.00;71671.09;5052364;28;20037;-84
2023/05/21 08:27:16;;;;;;;7.15;5.15;;;;;;;-146.82;100.00;71671.09;5052878;28;20107;-82
2023/05/21 08:29:43;;;;;;;6.25;5.68;;;;;;;-146.82;100.00;71671.09;5040894;28;20095;-84
2023/05/21 08:32:09;;;;;;;6.53;5.65;;;;;;;-146.82;100.00;71671.09;5043096;28;20038;-86
2023/05/21 08:34:36;;;;;;;8.55;5.85;;;;;;;-146.82;100.00;71671.09;5032907;28;20033;-87
2023/05/21 08:37:03;;;;;;;8.27;5.88;;;;;;;-146.82;100.00;71671.09;5031755;28;20026;-87
2023/05/21 08:39:30;;;;;;;7.78;5.60;;;;;;;-146.82;100.00;71671.09;5032381;28;20427;-86
2023/05/21 08:42:10;;;;;;;9.07;6.10;;;;;;;-146.82;100.00;71671.09;5034104;28;20041;-87
2023/05/21 08:44:36;;;;;;;6.15;5.53;;;;;;;-146.82;100.00;71671.09;5033448;28;20076;-87
2023/05/21 08:47:05;;;;;;;8.02;5.70;;;;;;;-146.82;100.00;71671.09;5038000;28;20109;-86
2023/05/21 08:49:33;;;;;;;7.25;6.55;;;;;;;-146.82;100.00;71671.09;5026721;28;20536;-85
2023/05/21 08:52:01;;;;;;;17.65;6.00;;;;;;;-146.82;100.00;71671.09;5023380;28;20037;-84
2023/05/21 08:54:28;;;;;;;8.45;5.60;;;;;;;-146.82;100.00;71671.09;5038601;28;20072;-81
2023/05/21 08:56:55;;;;;;;14.45;5.88;;;;;;;-146.82;100.00;71671.09;5036832;28;20143;-82
2023/05/21 08:59:21;;;;;;;6.10;5.47;;;;;;;-146.82;100.00;71671.09;5036042;28;20032;-83
2023/05/21 09:01:51;;;;;;;6.88;5.60;;;;;;;-146.82;100.00;71671.09;5035504;28;20079;-80
2023/05/21 09:04:17;;;;;;;6.50;5.32;;;;;;;-146.82;100.00;71671.09;5035123;28;20392;-79
2023/05/21 09:06:45;;;;;;;10.05;4.82;;;;;;;-146.82;100.00;71671.09;5035472;28;20022;-81
2023/05/21 09:09:32;;;;;;;7.30;4.38;;;;;;;-146.82;100.00;71671.09;5050544;28;20115;-87
2023/05/21 09:11:58;;;;;;;6.20;4.50;;;;;;;-146.82;100.00;71671.09;5046002;28;20041;-81
2023/05/21 09:14:25;;;;;;;7.28;4.43;;;;;;;-146.82;100.00;71671.09;5042600;28;20075;-86
2023/05/21 09:16:51;;;;;;;9.02;4.70;;;;;;;-146.82;100.00;71671.09;5035218;28;20117;-86
2023/05/21 09:19:31;;;;;;;7.72;4.82;;;;;;;-146.82;100.00;71671.09;5056148;28;20056;-91
2023/05/21 09:22:03;;;;;;;4.40;4.00;;;;;;;-146.82;100.00;71671.09;5055231;28;20054;-85
2023/05/21 09:24:32;;;;;;;7.22;4.40;;;;;;;-146.82;100.00;71671.09;5054780;28;20040;-83
2023/05/21 09:26:59;;;;;;;8.57;4.78;;;;;;;-146.82;100.00;71671.09;5056357;28;20029;-89
2023/05/21 09:29:25;;;;;;;5.57;4.35;;;;;;;-146.82;100.00;71671.09;5046230;28;20479;-86
2023/05/21 09:31:53;;;;;;;5.68;4.22;;;;;;;-146.82;100.00;71671.09;5034527;28;20042;-86
2023/05/21 09:34:19;;;;;;;6.78;4.25;;;;;;;-146.82;100.00;71671.09;5033674;28;20112;-86
2023/05/21 09:37:00;;;;;;;7.00;4.30;;;;;;;-146.82;100.00;71671.09;5033869;28;20056;-86
2023/05/21 09:39:28;;;;;;;7.35;3.97;;;;;;;-146.82;100.00;71671.09;5033620;28;20041;-86
2023/05/21 09:42:12;;;;;;;5.82;3.90;;;;;;;-146.82;100.00;71671.09;5033608;28;20425;-87
2023/05/21 09:44:38;;;;;;;5.65;4.22;;;;;;;-146.82;100.00;71671.09;5035916;28;20036;-86
2023/05/21 09:47:04;;;;;;;7.97;3.90;;;;;;;-146.82;100.00;71671.09;5035597;28;20129;-89
2023/05/21 09:49:32;;;;;;;5.55;4.60;;;;;;;-146.82;100.00;71671.09;5035431;28;20047;-86
2023/05/21 09:52:00;;;;;;;6.38;4.50;;;;;;;-146.82;100.00;71671.09;5036109;28;20064;-73
2023/05/21 09:54:32;;;;;;;5.15;4.43;;;;;;;-146.82;100.00;71671.09;5034037;28;20116;-75
2023/05/21 09:57:01;;;;;;;8.98;4.50;;;;;;;-146.82;100.00;71671.09;5033275;28;20049;-74
2023/05/21 09:59:44;;;;;;;6.80;4.68;;;;;;;-146.82;100.00;71671.09;5035341;28;20045;-72
2023/05/21 10:02:20;;;;;;;6.70;4.95;;;;;;;-146.82;100.00;71671.09;5033676;28;20064;-72
2023/05/21 10:04:48;;;;;;;6.95;4.47;;;;;;;-146.82;100.00;71671.09;5033873;28;20485;-73
2023/05/21 10:07:34;;;;;;;6.25;4.60;;;;;;;-146.82;100.00;71671.09;5034951;28;20079;-74
2023/05/21 10:10:02;;;;;;;5.57;4.75;;;;;;;-146.82;100.00;71671.09;5034613;28;20095;-73
2023/05/21 10:12:29;;;;;;;6.07;4.28;;;;;;;-146.82;100.00;71671.09;5033022;28;20382;-73
2023/05/21 10:15:00;;;;;;;7.80;4.05;;;;;;;-146.82;100.00;71671.09;5034552;28;20059;-74
2023/05/21 10:17:26;;;;;;;5.35;4.13;;;;;;;-146.82;100.00;71671.09;5034218;28;20489;-74
2023/05/21 10:19:54;;;;;;;6.60;4.72;;;;;;;-146.82;100.00;71671.09;5032929;28;20080;-72
2023/05/21 10:22:22;;;;;;;5.05;4.43;;;;;;;-146.82;100.00;71671.09;5032888;28;20040;-73
2023/05/21 10:24:49;;;;;;;4.90;4.10;;;;;;;-146.82;100.00;71671.09;5032971;28;20026;-74
2023/05/21 10:27:15;;;;;;;5.35;4.57;;;;;;;-146.82;100.00;71671.09;5032363;28;20036;-72
2023/05/21 10:29:43;;;;;;;7.47;4.53;;;;;;;-146.82;100.00;71671.09;5032774;28;20033;-75
2023/05/21 10:32:12;;;;;;;5.80;4.30;;;;;;;-146.82;100.00;71671.09;5032524;28;20083;-75
2023/05/21 10:34:38;;;;;;;13.18;4.45;;;;;;;-146.82;100.00;71671.09;5031213;28;20028;-75
2023/05/21 10:37:04;;;;;;;8.10;4.15;;;;;;;-146.82;100.00;71671.09;5032748;28;20326;-73
2023/05/21 10:39:30;;;;;;;5.63;4.00;;;;;;;-146.82;100.00;71671.09;5032434;28;20044;-74
2023/05/21 10:42:14;;;;;;;5.57;4.00;;;;;;;-146.82;100.00;71671.09;5033046;28;20029;-73
2023/05/21 10:45:12;;;;;;;7.30;3.80;;;;;;;-146.82;100.00;71671.09;5034144;28;20029;-73
2023/05/21 10:48:08;;;;;;;4.35;3.63;;;;;;;-146.82;100.00;71671.09;5032778;28;20033;-73
2023/05/21 10:51:14;;;;;;;6.72;4.35;;;;;;;-146.82;100.00;71671.09;5033859;28;20064;-72
2023/05/21 10:53:44;;;;;;;5.28;4.53;;;;;;;-146.82;100.00;71671.09;5034283;28;20025;-73
2023/05/21 10:56:16;;;;;;;6.95;3.97;;;;;;;-146.82;100.00;71671.09;5034396;28;20030;-73
2023/05/21 10:58:49;;;;;;;7.90;4.50;;;;;;;-146.82;100.00;71671.09;5033784;28;20057;-72
2023/05/21 11:01:20;;;;;;;5.47;3.80;;;;;;;-146.82;100.00;71671.09;5034271;28;20053;-73
2023/05/21 11:03:48;;;;;;;7.65;4.35;;;;;;;-146.82;100.00;71671.09;5033832;28;20064;-71
2023/05/21 11:06:35;;;;;;;9.77;4.15;;;;;;;-146.82;100.00;71671.09;5032563;28;20040;-72
2023/05/21 11:09:20;;;;;;;6.03;4.10;;;;;;;-146.82;100.00;71671.09;5033607;28;20108;-73
2023/05/21 11:12:11;;;;;;;8.45;3.90;;;;;;;-146.82;100.00;71671.09;5033570;28;20041;-73
2023/05/21 11:14:39;;;;;;;5.30;4.80;;;;;;;-146.82;100.00;71671.09;5032750;28;20193;-73
2023/05/21 11:17:16;;;;;;;5.40;3.92;;;;;;;-146.82;100.00;71671.09;5033780;28;20350;-72
2023/05/21 11:19:52;;;;;;;4.30;3.80;;;;;;;-146.82;100.00;71671.09;5044844;28;20068;-73
2023/05/21 11:22:25;;;;;;;7.82;3.88;;;;;;;-146.82;100.00;71671.09;5059423;28;20078;-73
2023/05/21 11:24:52;;;;;;;6.93;3.58;;;;;;;-146.82;100.00;71671.09;5068081;28;20048;-73
2023/05/21 11:27:35;;;;;;;4.85;3.70;;;;;;;-146.82;100.00;71671.09;5063730;28;20055;-72
2023/05/21 11:30:19;;;;;;;5.35;3.60;;;;;;;-146.82;100.00;71671.09;5056955;28;20494;-73
2023/05/21 11:33:12;;;;;;;8.38;3.75;;;;;;;-146.82;100.00;71671.09;5050919;28;20132;-73
2023/05/21 11:35:59;;;;;;;3.95;3.50;;;;;;;-146.82;100.00;71671.09;5051412;28;20028;-73
2023/05/21 11:38:30;;;;;;;5.78;3.20;;;;;;;-146.82;100.00;71671.09;5046426;28;20458;-74
2023/05/21 11:41:09;;;;;;;6.25;3.72;;;;;;;-146.82;100.00;71671.09;5036704;28;20041;-73
2023/05/21 11:43:39;;;;;;;6.20;3.45;;;;;;;-146.82;100.00;71671.09;5045260;28;20041;-74
2023/05/21 11:46:05;;;;;;;6.03;3.07;;;;;;;-146.82;100.00;71671.09;5045957;28;20021;-75
2023/05/21 11:48:31;;;;;;;3.90;2.85;;;;;;;-146.82;100.00;71671.09;5069309;28;20513;-74
2023/05/21 11:50:59;;;;;;;4.65;3.10;;;;;;;-146.82;100.00;71671.09;5071519;28;20077;-73
2023/05/21 11:53:38;;;;;;;5.00;3.08;;;;;;;-146.82;100.00;71671.09;5071520;28;20389;-72
2023/05/21 11:56:08;;;;;;;5.60;3.38;;;;;;;-146.82;100.00;71671.09;5071582;28;20056;-71
2023/05/21 11:58:35;;;;;;;6.43;3.65;;;;;;;-146.82;100.00;71671.09;5059700;28;20080;-72
2023/05/21 12:01:00;;;;;;;4.28;2.97;;;;;;;-146.82;100.00;71671.09;5031477;28;20033;-74
2023/05/21 12:03:29;;;;;;;2.60;2.30;;;;;;;-146.82;100.00;71671.09;5026110;28;20044;-74
2023/05/21 12:06:04;;;;;;;7.50;3.42;;;;;;;-146.82;100.00;71671.09;5032739;28;20104;-72
2023/05/21 12:08:31;;;;;;;7.88;3.45;;;;;;;-146.82;100.00;71671.09;5031682;28;20014;-73
2023/05/21 12:11:00;;;;;;;4.18;2.72;;;;;;;-146.82;100.00;71671.09;5032821;28;20037;-75
2023/05/21 12:13:26;;;;;;;4.25;3.50;;;;;;;-146.82;100.00;71671.09;5031184;28;20094;-76
2023/05/21 12:15:55;;;;;;;4.47;3.00;;;;;;;-146.82;100.00;71671.09;5031502;28;20108;-74
2023/05/21 12:18:21;;;;;;;5.03;3.25;;;;;;;-146.82;100.00;71671.09;5031070;28;20029;-75
2023/05/21 12:20:46;;;;;;;5.63;3.78;;;;;;;-146.82;100.00;71671.09;5016901;28;20029;-74
2023/05/21 12:23:19;;;;;;;5.22;2.88;;;;;;;-146.82;100.00;71671.09;5034493;28;20071;-73
2023/05/21 12:25:45;;;;;;;7.78;2.97;;;;;;;-146.82;100.00;71671.09;5034636;28;20170;-75
2023/05/21 12:28:11;;;;;;;5.53;3.20;;;;;;;-146.82;100.00;71671.09;5033303;28;20030;-72
2023/05/21 12:30:36;;;;;;;4.00;2.83;;;;;;;-146.82;100.00;71671.09;5035270;28;20072;-75
2023/05/21 12:33:03;;;;;;;7.10;3.58;;;;;;;-146.82;100.00;71671.09;5035724;28;20038;-74
2023/05/21 12:35:29;;;;;;;5.15;2.97;;;;;;;-146.82;100.00;71671.09;5036549;28;20030;-75
2023/05/21 12:37:55;;;;;;;4.07;2.97;;;;;;;-146.82;100.00;71671.09;5036747;28;20033;-73
2023/05/21 12:40:21;;;;;;;5.63;3.35;;;;;;;-146.82;100.00;71671.09;5036882;28;20440;-73
2023/05/21 12:42:46;;;;;;;5.13;3.08;;;;;;;-146.82;100.00;71671.09;5036470;28;20052;-74
2023/05/21 12:45:12;;;;;;;6.68;3.00;;;;;;;-146.82;100.00;71671.09;5036381;28;20040;-73
2023/05/21 12:47:37;;;;;;;4.85;2.92;;;;;;;-146.82;100.00;71671.09;5036261;28;20107;-72
2023/05/21 12:50:08;;;;;;;6.95;3.40;;;;;;;-146.82;100.00;71671.09;5036355;28;20108;-73
2023/05/21 12:52:33;;;;;;;4.65;3.13;;;;;;;-146.82;100.00;71671.09;5036513;28;20033;-73
2023/05/21 12:54:59;;;;;;;4.32;2.88;;;;;;;-146.82;100.00;71671.09;5036545;28;20415;-74
2023/05/21 12:57:27;;;;;;;5.90;3.47;;;;;;;-146.82;100.00;71671.09;5035979;28;20463;-73
2023/05/21 12:59:57;;;;;;;4.93;3.35;;;;;;;-146.82;100.00;71671.09;5036363;28;20039;-74
2023/05/21 13:02:31;;;;;;;4.82;3.17;;;;;;;-146.82;100.00;71671.09;5036463;28;20071;-73
2023/05/21 13:05:02;;;;;;;5.60;3.58;;;;;;;-146.82;100.00;71671.09;5035946;28;20028;-74
2023/05/21 13:07:29;;;;;;;6.93;3.20;;;;;;;-146.82;100.00;71671.09;5035131;28;20108;-73
2023/05/21 13:09:55;;;;;;;5.15;3.33;;;;;;;-146.82;100.00;71671.09;5036028;28;20056;-73
2023/05/21 13:12:22;;;;;;;4.82;3.25;;;;;;;-146.82;100.00;71671.09;5036036;28;20025;-75
2023/05/21 13:14:49;;;;;;;7.97;3.33;;;;;;;-146.82;100.00;71671.09;5035769;28;20025;-73
2023/05/21 13:17:15;;;;;;;3.67;3.35;;;;;;;-146.82;100.00;71671.09;5034447;28;20028;-73
2023/05/21 13:19:40;;;;;;;8.45;3.55;;;;;;;-146.82;100.00;71671.09;5034760;28;20030;-73
2023/05/21 13:22:06;;;;;;;4.88;3.20;;;;;;;-146.82;100.00;71671.09;5035912;28;20032;-73
2023/05/21 13:24:31;;;;;;;5.32;3.45;;;;;;;-146.82;100.00;71671.09;5035112;28;20064;-73
2023/05/21 13:26:57;;;;;;;5.78;3.65;;;;;;;-146.82;100.00;71671.09;5035674;28;20017;-73
2023/05/21 13:29:22;;;;;;;4.05;3.50;;;;;;;-146.82;100.00;71671.09;5035191;28;20064;-74